createdAt,value
2023-02-05T00:02:23.701Z,7.90
2023-02-05T00:04:54.260Z,7.90
2023-02-05T00:07:36.473Z,7.90
2023-02-05T00:10:12.338Z,7.90
2023-02-05T00:12:47.457Z,7.90
2023-02-05T00:15:16.135Z,7.90
2023-02-05T00:17:51.397Z,7.90
2023-02-05T00:20:22.235Z,7.90
2023-02-05T00:22:57.702Z,7.90
2023-02-05T00:25:26.491Z,7.90
2023-02-05T00:28:01.570Z,7.80
2023-02-05T00:30:30.269Z,7.80
2023-02-05T00:33:05.471Z,7.80
2023-02-05T00:35:35.728Z,7.80
2023-02-05T00:38:11.511Z,7.80
2023-02-05T00:40:40.429Z,7.80
2023-02-05T00:43:15.483Z,7.80
2023-02-05T00:45:44.228Z,7.80
2023-02-05T00:48:19.519Z,7.80
2023-02-05T00:50:51.871Z,7.80
2023-02-05T00:53:28.500Z,7.80
2023-02-05T00:55:57.444Z,7.80
2023-02-05T00:58:32.479Z,7.80
2023-02-05T01:01:00.967Z,7.80
2023-02-05T01:03:36.745Z,7.70
2023-02-05T01:06:27.478Z,7.70
2023-02-05T01:09:02.538Z,7.70
2023-02-05T01:11:30.823Z,7.70
2023-02-05T01:14:05.442Z,7.70
2023-02-05T01:16:33.924Z,7.70
2023-02-05T01:19:08.583Z,7.70
2023-02-05T01:21:38.838Z,7.70
2023-02-05T01:24:14.533Z,7.70
2023-02-05T01:26:43.407Z,7.70
2023-02-05T01:29:18.474Z,7.70
2023-02-05T01:31:47.007Z,7.70
2023-02-05T01:34:22.494Z,7.60
2023-02-05T01:36:58.517Z,7.60
2023-02-05T01:39:27.125Z,7.60
2023-02-05T01:42:02.547Z,7.60
2023-02-05T01:44:32.766Z,7.60
2023-02-05T01:47:07.550Z,7.60
2023-02-05T01:49:41.673Z,7.60
2023-02-05T01:52:21.503Z,7.60
2023-02-05T01:54:53.283Z,7.60
2023-02-05T01:57:31.813Z,7.70
2023-02-05T02:00:00.965Z,7.60
2023-02-05T02:02:44.821Z,7.60
2023-02-05T02:05:18.043Z,7.60
2023-02-05T02:07:54.464Z,7.60
2023-02-05T02:10:23.357Z,7.60
2023-02-05T02:13:00.557Z,7.60
2023-02-05T02:15:30.042Z,7.60
2023-02-05T02:18:26.856Z,7.60
2023-02-05T02:21:16.087Z,7.50
2023-02-05T02:24:06.981Z,7.50
2023-02-05T02:26:53.239Z,7.50
2023-02-05T02:29:38.579Z,7.50
2023-02-05T02:32:15.629Z,7.50
2023-02-05T02:34:56.518Z,7.50
2023-02-05T02:37:34.766Z,7.50
2023-02-05T02:40:17.537Z,7.50
2023-02-05T02:42:50.785Z,7.40
2023-02-05T02:45:31.711Z,7.40
2023-02-05T02:48:02.659Z,7.40
2023-02-05T02:50:41.542Z,7.40
2023-02-05T02:53:14.049Z,7.40
2023-02-05T02:55:50.872Z,7.40
2023-02-05T02:58:24.706Z,7.40
2023-02-05T03:01:02.930Z,7.40
2023-02-05T03:03:41.163Z,7.40
2023-02-05T03:06:19.686Z,7.40
2023-02-05T03:08:54.250Z,7.40
2023-02-05T03:11:29.903Z,7.40
2023-02-05T03:13:59.655Z,7.40
2023-02-05T03:16:36.673Z,7.30
2023-02-05T03:19:07.929Z,7.40
2023-02-05T03:21:48.636Z,7.30
2023-02-05T03:24:18.646Z,7.30
2023-02-05T03:26:53.665Z,7.30
2023-02-05T03:29:27.538Z,7.30
2023-02-05T03:32:12.895Z,7.30
2023-02-05T03:34:51.957Z,7.30
2023-02-05T03:37:33.690Z,7.30
2023-02-05T03:40:13.707Z,7.20
2023-02-05T03:42:59.915Z,7.20
2023-02-05T03:45:38.219Z,7.20
2023-02-05T03:48:36.761Z,7.20
2023-02-05T03:51:33.352Z,7.20
2023-02-05T03:54:16.930Z,7.20
2023-02-05T03:56:55.470Z,7.20
2023-02-05T03:59:32.611Z,7.20
2023-02-05T04:02:23.625Z,7.20
2023-02-05T04:04:59.643Z,7.20
2023-02-05T04:07:28.395Z,7.20
2023-02-05T04:10:04.029Z,7.20
2023-02-05T04:12:32.598Z,7.10
2023-02-05T04:15:07.772Z,7.10
2023-02-05T04:17:36.740Z,7.10
2023-02-05T04:20:15.040Z,7.10
2023-02-05T04:22:43.894Z,7.10
2023-02-05T04:25:18.946Z,7.10
2023-02-05T04:27:47.932Z,7.10
2023-02-05T04:30:22.952Z,7.10
2023-02-05T04:32:52.049Z,7.10
2023-02-05T04:35:28.664Z,7.10
2023-02-05T04:37:57.132Z,7.10
2023-02-05T04:40:31.663Z,7.10
2023-02-05T04:43:01.012Z,7.10
2023-02-05T04:45:38.014Z,7.10
2023-02-05T04:48:06.920Z,7.10
2023-02-05T04:50:43.991Z,7.10
2023-02-05T04:53:13.588Z,7.10
2023-02-05T04:55:48.963Z,7.10
2023-02-05T04:58:17.614Z,7.00
2023-02-05T05:00:52.763Z,7.00
2023-02-05T05:03:28.358Z,7.00
2023-02-05T05:06:04.765Z,6.90
2023-02-05T05:08:33.458Z,7.00
2023-02-05T05:11:12.760Z,6.90
2023-02-05T05:13:42.097Z,6.90
2023-02-05T05:16:18.706Z,6.90
2023-02-05T05:18:47.373Z,6.90
2023-02-05T05:21:24.096Z,6.90
2023-02-05T05:23:52.704Z,6.90
2023-02-05T05:26:29.774Z,6.90
2023-02-05T05:28:59.556Z,6.90
2023-02-05T05:31:34.655Z,6.90
2023-02-05T05:34:03.344Z,6.90
2023-02-05T05:36:40.031Z,6.90
2023-02-05T05:39:32.038Z,6.90
2023-02-05T05:42:17.413Z,6.80
2023-02-05T05:44:56.721Z,6.80
2023-02-05T05:47:25.891Z,6.80
2023-02-05T05:50:00.751Z,6.70
2023-02-05T05:52:32.458Z,6.70
2023-02-05T05:55:08.768Z,6.70
2023-02-05T05:57:37.225Z,6.70
2023-02-05T06:00:13.784Z,6.70
2023-02-05T06:02:49.573Z,6.70
2023-02-05T06:05:32.095Z,6.70
2023-02-05T06:08:02.202Z,6.70
2023-02-05T06:10:36.761Z,6.70
2023-02-05T06:13:05.440Z,6.70
2023-02-05T06:15:41.036Z,6.60
2023-02-05T06:18:09.664Z,6.60
2023-02-05T06:20:45.103Z,6.70
2023-02-05T06:23:15.667Z,6.70
2023-02-05T06:25:50.820Z,6.70
2023-02-05T06:28:19.623Z,6.60
2023-02-05T06:30:54.959Z,6.60
2023-02-05T06:33:23.564Z,6.70
2023-02-05T06:35:58.820Z,6.60
2023-02-05T06:38:28.992Z,6.60
2023-02-05T06:41:04.129Z,6.60
2023-02-05T06:43:32.675Z,6.60
2023-02-05T06:46:08.072Z,6.70
2023-02-05T06:48:37.184Z,6.70
2023-02-05T06:51:12.772Z,6.70
2023-02-05T06:53:43.738Z,6.70
2023-02-05T06:56:18.852Z,6.70
2023-02-05T06:58:47.760Z,6.70
2023-02-05T07:01:22.916Z,6.70
2023-02-05T07:03:58.536Z,6.70
2023-02-05T07:06:40.788Z,6.70
2023-02-05T07:09:11.786Z,6.70
2023-02-05T07:11:47.141Z,6.70
2023-02-05T07:14:16.170Z,6.70
2023-02-05T07:16:52.094Z,6.80
2023-02-05T07:19:20.682Z,6.70
2023-02-05T07:21:56.103Z,6.70
2023-02-05T07:24:26.467Z,6.70
2023-02-05T07:27:01.852Z,6.70
2023-02-05T07:29:31.361Z,6.70
2023-02-05T07:32:07.205Z,6.60
2023-02-05T07:34:36.284Z,6.60
2023-02-05T07:37:12.217Z,6.60
2023-02-05T07:39:42.829Z,6.50
2023-02-05T07:42:19.138Z,6.40
2023-02-05T07:44:48.759Z,6.40
2023-02-05T07:47:23.865Z,6.30
2023-02-05T07:49:52.674Z,6.30
2023-02-05T07:52:28.129Z,6.20
2023-02-05T07:54:58.053Z,6.20
2023-02-05T07:57:33.841Z,6.20
2023-02-05T08:00:02.892Z,6.20
2023-02-05T08:02:38.148Z,6.20
2023-02-05T08:05:14.553Z,6.20
2023-02-05T08:07:49.825Z,6.20
2023-02-05T08:10:20.066Z,6.20
2023-02-05T08:12:56.121Z,6.20
2023-02-05T08:15:24.840Z,6.20
2023-02-05T08:17:59.885Z,6.30
2023-02-05T08:20:28.839Z,6.30
2023-02-05T08:23:03.852Z,6.30
2023-02-05T08:25:34.317Z,6.30
2023-02-05T08:28:09.985Z,6.30
2023-02-05T08:30:38.562Z,6.30
2023-02-05T08:33:13.869Z,6.20
2023-02-05T08:35:42.445Z,6.20
2023-02-05T08:38:18.109Z,6.20
2023-02-05T08:40:48.176Z,6.20
2023-02-05T08:43:22.930Z,6.20
2023-02-05T08:45:51.801Z,6.30
2023-02-05T08:48:26.911Z,6.30
2023-02-05T08:50:55.665Z,6.30
2023-02-05T08:53:31.148Z,6.40
2023-02-05T08:56:03.069Z,6.40
2023-02-05T08:58:37.896Z,6.40
2023-02-05T09:01:07.914Z,6.40
2023-02-05T09:03:43.015Z,6.40
2023-02-05T09:06:14.933Z,6.40
2023-02-05T09:08:50.952Z,6.40
2023-02-05T09:11:26.854Z,6.40
2023-02-05T09:14:01.964Z,6.40
2023-02-05T09:16:30.654Z,6.50
2023-02-05T09:19:06.900Z,6.50
2023-02-05T09:21:35.523Z,6.50
2023-02-05T09:24:11.208Z,6.50
2023-02-05T09:26:42.494Z,6.60
2023-02-05T09:29:18.262Z,6.60
2023-02-05T09:31:47.202Z,6.60
2023-02-05T09:34:23.916Z,6.70
2023-02-05T09:36:52.477Z,6.70
2023-02-05T09:40:12.037Z,6.70
2023-02-05T09:42:36.269Z,6.80
2023-02-05T09:45:24.240Z,6.80
2023-02-05T09:48:10.908Z,6.90
2023-02-05T09:50:41.518Z,7.00
2023-02-05T09:53:23.936Z,7.00
2023-02-05T09:55:52.974Z,7.10
2023-02-05T09:58:35.032Z,7.10
2023-02-05T10:01:06.222Z,7.10
2023-02-05T10:03:54.177Z,7.10
2023-02-05T10:06:43.175Z,7.20
2023-02-05T10:09:30.994Z,7.20
2023-02-05T10:12:06.917Z,7.30
2023-02-05T10:14:54.968Z,7.40
2023-02-05T10:17:36.281Z,7.50
2023-02-05T10:20:29.313Z,7.50
2023-02-05T10:23:12.734Z,7.50
2023-02-05T10:25:57.022Z,7.50
2023-02-05T10:28:53.853Z,7.60
2023-02-05T10:31:49.096Z,7.60
2023-02-05T10:34:21.143Z,7.70
2023-02-05T10:37:01.232Z,7.70
2023-02-05T10:39:32.491Z,7.60
2023-02-05T10:42:15.266Z,7.50
2023-02-05T10:44:47.921Z,7.50
2023-02-05T10:47:31.045Z,7.40
2023-02-05T10:50:05.783Z,7.40
2023-02-05T10:52:42.072Z,7.40
2023-02-05T10:55:13.588Z,7.30
2023-02-05T10:57:49.016Z,7.30
2023-02-05T11:00:21.269Z,7.30
2023-02-05T11:03:01.043Z,7.20
2023-02-05T11:05:40.227Z,7.20
2023-02-05T11:08:40.225Z,7.20
2023-02-05T11:11:20.852Z,7.30
2023-02-05T11:14:00.021Z,7.30
2023-02-05T11:16:40.433Z,7.40
2023-02-05T11:19:26.109Z,7.50
2023-02-05T11:22:00.149Z,7.50
2023-02-05T11:24:41.296Z,7.40
2023-02-05T11:27:28.167Z,7.40
2023-02-05T11:30:04.124Z,7.40
2023-02-05T11:32:36.499Z,7.50
2023-02-05T11:35:27.022Z,7.50
2023-02-05T11:38:01.899Z,7.50
2023-02-05T11:40:40.370Z,7.50
2023-02-05T11:43:18.280Z,7.50
2023-02-05T11:45:59.306Z,7.60
2023-02-05T11:48:39.106Z,7.60
2023-02-05T11:51:19.300Z,7.60
2023-02-05T11:53:54.270Z,7.60
2023-02-05T11:56:32.399Z,7.60
2023-02-05T11:59:02.355Z,7.60
2023-02-05T12:01:41.151Z,7.70
2023-02-05T12:04:26.061Z,7.70
2023-02-05T12:07:09.318Z,7.70
2023-02-05T12:09:38.486Z,7.80
2023-02-05T12:12:28.076Z,7.80
2023-02-05T12:15:05.424Z,7.90
2023-02-05T12:17:58.000Z,7.90
2023-02-05T12:21:05.212Z,7.90
2023-02-05T12:24:03.467Z,7.90
2023-02-05T12:26:42.100Z,7.90
2023-02-05T12:29:27.997Z,7.90
2023-02-05T12:32:13.134Z,8.00
2023-02-05T12:34:54.673Z,8.00
2023-02-05T12:37:41.112Z,8.10
2023-02-05T12:40:27.034Z,8.20
2023-02-05T12:43:10.121Z,8.20
2023-02-05T12:45:49.064Z,8.20
2023-02-05T12:48:41.390Z,8.20
2023-02-05T12:51:38.800Z,8.10
2023-02-05T12:54:30.178Z,8.10
2023-02-05T12:57:05.200Z,8.20
2023-02-05T12:59:48.501Z,8.20
2023-02-05T13:02:24.572Z,8.20
2023-02-05T13:05:25.012Z,8.20
2023-02-05T13:08:00.990Z,8.20
2023-02-05T13:10:42.389Z,8.20
2023-02-05T13:13:19.811Z,8.30
2023-02-05T13:16:00.124Z,8.30
2023-02-05T13:18:32.474Z,8.30
2023-02-05T13:21:31.476Z,8.30
2023-02-05T13:24:40.222Z,8.30
2023-02-05T13:27:44.225Z,8.30
2023-02-05T13:30:18.265Z,8.30
2023-02-05T13:32:58.200Z,8.30
2023-02-05T13:35:30.048Z,8.30
2023-02-05T13:38:33.201Z,8.30
2023-02-05T13:41:46.433Z,8.40
2023-02-05T13:44:45.439Z,8.30
2023-02-05T13:47:35.206Z,8.20
2023-02-05T13:50:30.137Z,8.20
2023-02-05T13:53:16.076Z,8.30
2023-02-05T13:56:04.857Z,8.40
2023-02-05T13:58:37.983Z,8.40
2023-02-05T14:01:22.294Z,8.40
2023-02-05T14:04:06.685Z,8.40
2023-02-05T14:06:45.168Z,8.30
2023-02-05T14:09:24.904Z,8.30
2023-02-05T14:12:03.177Z,8.30
2023-02-05T14:14:35.078Z,8.30
2023-02-05T14:17:31.241Z,8.50
2023-02-05T14:20:06.209Z,8.50
2023-02-05T14:22:49.213Z,8.50
2023-02-05T14:26:11.551Z,8.50
2023-02-05T14:29:00.215Z,8.50
2023-02-05T14:31:56.097Z,8.50
2023-02-05T14:34:55.223Z,8.50
2023-02-05T14:37:39.982Z,8.40
2023-02-05T14:40:35.591Z,8.40
2023-02-05T14:43:15.866Z,8.50
2023-02-05T14:45:53.556Z,8.50
2023-02-05T14:48:30.866Z,8.50
2023-02-05T14:51:12.177Z,8.50
2023-02-05T14:53:54.115Z,8.50
2023-02-05T14:56:38.499Z,8.50
2023-02-05T14:59:21.633Z,8.50
2023-02-05T15:01:59.231Z,8.50
2023-02-05T15:04:58.499Z,8.40
2023-02-05T15:07:37.534Z,8.30
2023-02-05T15:10:14.593Z,8.20
2023-02-05T15:13:11.545Z,8.20
2023-02-05T15:15:40.553Z,8.20
2023-02-05T15:18:30.188Z,8.20
2023-02-05T15:20:59.899Z,8.20
2023-02-05T15:23:43.556Z,8.20
2023-02-05T15:26:24.959Z,8.20
2023-02-05T15:29:08.217Z,8.10
2023-02-05T15:31:43.307Z,8.10
2023-02-05T15:34:54.532Z,8.10
2023-02-05T15:37:27.210Z,8.10
2023-02-05T15:40:04.573Z,8.10
2023-02-05T15:42:38.926Z,8.00
2023-02-05T15:45:31.531Z,8.00
2023-02-05T15:48:02.157Z,7.90
2023-02-05T15:50:38.310Z,7.90
2023-02-05T15:53:11.434Z,7.90
2023-02-05T15:55:48.565Z,7.80
2023-02-05T15:58:22.585Z,7.80
2023-02-05T16:00:59.242Z,7.80
2023-02-05T16:03:49.353Z,7.70
2023-02-05T16:06:28.566Z,7.70
2023-02-05T16:08:58.613Z,7.60
2023-02-05T16:11:38.653Z,7.60
2023-02-05T16:14:15.203Z,7.50
2023-02-05T16:17:02.609Z,7.40
2023-02-05T16:19:35.512Z,7.40
2023-02-05T16:22:21.354Z,7.40
2023-02-05T16:24:54.139Z,7.40
2023-02-05T16:27:35.323Z,7.30
2023-02-05T16:30:13.388Z,7.20
2023-02-05T16:32:51.272Z,7.20
2023-02-05T16:35:26.360Z,7.20
2023-02-05T16:38:02.595Z,7.20
2023-02-05T16:40:36.217Z,7.10
2023-02-05T16:43:28.293Z,7.10
2023-02-05T16:46:42.301Z,7.10
2023-02-05T16:49:42.070Z,7.00
2023-02-05T16:52:37.578Z,6.90
2023-02-05T16:55:33.618Z,6.90
2023-02-05T16:58:13.610Z,6.90
2023-02-05T17:00:42.518Z,6.90
2023-02-05T17:03:27.311Z,6.80
2023-02-05T17:06:06.166Z,6.80
2023-02-05T17:08:43.359Z,6.70
2023-02-05T17:11:36.505Z,6.60
2023-02-05T17:14:34.297Z,6.60
2023-02-05T17:17:04.422Z,6.60
2023-02-05T17:19:40.673Z,6.50
2023-02-05T17:22:21.884Z,6.50
2023-02-05T17:24:58.694Z,6.40
2023-02-05T17:27:31.171Z,6.40
2023-02-05T17:30:07.413Z,6.30
2023-02-05T17:32:35.984Z,6.30
2023-02-05T17:35:21.642Z,6.30
2023-02-05T17:37:51.587Z,6.30
2023-02-05T17:40:27.351Z,6.20
2023-02-05T17:42:56.102Z,6.20
2023-02-05T17:45:33.678Z,6.10
2023-02-05T17:48:02.397Z,6.10
2023-02-05T17:50:38.719Z,6.10
2023-02-05T17:53:11.627Z,6.00
2023-02-05T17:55:48.332Z,6.00
2023-02-05T17:58:17.711Z,6.00
2023-02-05T18:00:52.742Z,5.90
2023-02-05T18:03:25.817Z,5.90
2023-02-05T18:06:09.970Z,5.90
2023-02-05T18:08:41.071Z,5.90
2023-02-05T18:11:17.386Z,5.80
2023-02-05T18:13:46.077Z,5.80
2023-02-05T18:16:21.422Z,5.80
2023-02-05T18:18:52.989Z,5.80
2023-02-05T18:21:28.418Z,5.70
2023-02-05T18:24:01.756Z,5.70
2023-02-05T18:26:37.459Z,5.60
2023-02-05T18:29:05.975Z,5.60
2023-02-05T18:31:41.695Z,5.60
2023-02-05T18:34:10.521Z,5.60
2023-02-05T18:36:45.420Z,5.60
2023-02-05T18:39:15.402Z,5.50
2023-02-05T18:41:50.374Z,5.50
2023-02-05T18:44:25.430Z,5.50
2023-02-05T18:46:54.171Z,5.50
2023-02-05T18:49:29.748Z,5.50
2023-02-05T18:51:58.503Z,5.40
2023-02-05T18:54:35.496Z,5.40
2023-02-05T18:57:04.054Z,5.40
2023-02-05T18:59:40.367Z,5.30
2023-02-05T19:02:09.054Z,5.30
2023-02-05T19:04:51.391Z,5.30
2023-02-05T19:07:26.374Z,5.30
2023-02-05T19:10:04.404Z,5.20
2023-02-05T19:12:33.351Z,5.20
2023-02-05T19:15:08.476Z,5.20
2023-02-05T19:17:37.060Z,5.10
2023-02-05T19:20:13.446Z,5.10
2023-02-05T19:22:41.919Z,5.10
2023-02-05T19:25:19.472Z,5.10
2023-02-05T19:27:47.949Z,5.00
2023-02-05T19:30:23.449Z,5.00
2023-02-05T19:32:52.318Z,5.00
2023-02-05T19:35:27.726Z,4.90
2023-02-05T19:37:56.609Z,4.90
2023-02-05T19:40:33.887Z,4.90
2023-02-05T19:43:02.821Z,4.90
2023-02-05T19:45:37.459Z,4.90
2023-02-05T19:48:07.077Z,4.90
2023-02-05T19:50:42.567Z,4.90
2023-02-05T19:53:11.170Z,4.90
2023-02-05T19:55:47.606Z,4.80
2023-02-05T19:58:16.190Z,4.80
2023-02-05T20:00:51.485Z,4.80
2023-02-05T20:03:20.097Z,4.70
2023-02-05T20:06:02.498Z,4.70
2023-02-05T20:08:31.058Z,4.70
2023-02-05T20:11:08.486Z,4.70
2023-02-05T20:13:38.546Z,4.70
2023-02-05T20:16:19.913Z,4.60
2023-02-05T20:18:49.476Z,4.60
2023-02-05T20:21:26.540Z,4.50
2023-02-05T20:23:56.437Z,4.40
2023-02-05T20:26:33.558Z,4.40
2023-02-05T20:29:19.315Z,4.40
2023-02-05T20:31:56.474Z,4.40
2023-02-05T20:34:27.016Z,4.30
2023-02-05T20:37:03.490Z,4.30
2023-02-05T20:39:34.848Z,4.20
2023-02-05T20:42:11.878Z,4.20
2023-02-05T20:44:41.531Z,4.20
2023-02-05T20:47:19.820Z,4.20
2023-02-05T20:49:48.534Z,4.20
2023-02-05T20:52:23.877Z,4.20
2023-02-05T20:54:54.801Z,4.10
2023-02-05T20:57:31.814Z,4.10
2023-02-05T21:00:00.252Z,4.20
2023-02-05T21:02:35.726Z,4.10
2023-02-05T21:05:10.803Z,4.10
2023-02-05T21:07:52.804Z,4.10
2023-02-05T21:10:22.617Z,4.10
2023-02-05T21:12:59.504Z,4.10
2023-02-05T21:15:29.007Z,4.10
2023-02-05T21:18:04.805Z,4.10
2023-02-05T21:20:33.743Z,4.10
2023-02-05T21:23:08.599Z,4.10
2023-02-05T21:25:37.843Z,4.10
2023-02-05T21:28:14.584Z,4.10
2023-02-05T21:30:43.310Z,4.10
2023-02-05T21:33:18.585Z,4.20
2023-02-05T21:35:47.135Z,4.20
2023-02-05T21:38:22.609Z,4.20
2023-02-05T21:40:52.143Z,4.20
2023-02-05T21:43:28.885Z,4.20
2023-02-05T21:46:02.067Z,4.20
2023-02-05T21:48:37.691Z,4.20
2023-02-05T21:51:11.012Z,4.20
2023-02-05T21:53:46.541Z,4.20
2023-02-05T21:56:16.977Z,4.30
2023-02-05T21:58:53.838Z,4.30
2023-02-05T22:01:24.038Z,4.30
2023-02-05T22:04:01.644Z,4.30
2023-02-05T22:06:38.921Z,4.30
2023-02-05T22:09:16.764Z,4.20
2023-02-05T22:11:45.997Z,4.20
2023-02-05T22:14:22.541Z,4.20
2023-02-05T22:16:50.728Z,4.20
2023-02-05T22:19:25.867Z,4.20
2023-02-05T22:21:54.640Z,4.20
2023-02-05T22:24:30.954Z,4.10
2023-02-05T22:26:59.981Z,4.10
2023-02-05T22:29:36.609Z,4.10
2023-02-05T22:32:05.621Z,4.20
2023-02-05T22:34:42.613Z,4.10
2023-02-05T22:37:12.313Z,4.10
2023-02-05T22:39:49.899Z,4.10
2023-02-05T22:42:19.134Z,4.10
2023-02-05T22:44:55.933Z,4.10
2023-02-05T22:47:24.415Z,4.00
2023-02-05T22:49:59.607Z,4.00
2023-02-05T22:52:28.439Z,4.00
2023-02-05T22:55:03.617Z,3.90
2023-02-05T22:57:34.013Z,3.90
2023-02-05T23:00:10.933Z,3.90
2023-02-05T23:02:39.650Z,3.90
2023-02-05T23:05:14.969Z,3.80
2023-02-05T23:07:43.300Z,3.80
2023-02-05T23:10:18.964Z,3.80
2023-02-05T23:12:48.004Z,3.80
2023-02-05T23:15:25.646Z,3.80
2023-02-05T23:17:54.133Z,3.80
2023-02-05T23:20:29.636Z,3.70
2023-02-05T23:22:58.272Z,3.70
2023-02-05T23:25:34.363Z,3.60
2023-02-05T23:28:05.744Z,3.60
2023-02-05T23:30:42.825Z,3.50
2023-02-05T23:33:11.624Z,3.50
2023-02-05T23:35:47.652Z,3.50
2023-02-05T23:38:16.243Z,3.40
2023-02-05T23:40:51.986Z,3.40
2023-02-05T23:43:20.544Z,3.40
2023-02-05T23:45:56.719Z,3.40
2023-02-05T23:48:25.915Z,3.40
2023-02-05T23:51:03.942Z,3.40
2023-02-05T23:53:32.422Z,3.30
2023-02-05T23:56:08.662Z,3.30
2023-02-05T23:58:37.441Z,3.20
